sensor_id;sensor_type;location;lat;lon;timestamp;P1;durP1;ratioP1;P2;durP2;ratioP2
56927;SDS011;60850;52.502;13.426;2023-11-22T00:00:00;7.40;;;3.70;;
56927;SDS011;60850;52.502;13.426;2023-11-22T00:02:28;9.70;;;3.58;;
56927;SDS011;60850;52.502;13.426;2023-11-22T00:04:55;7.93;;;4.30;;
56927;SDS011;60850;52.502;13.426;2023-11-22T00:07:22;8.00;;;3.60;;
56927;SDS011;60850;52.502;13.426;2023-11-22T00:09:50;10.80;;;4.72;;
56927;SDS011;60850;52.502;13.426;2023-11-22T00:12:18;9.60;;;4.15;;
56927;SDS011;60850;52.502;13.426;2023-11-22T00:14:45;9.05;;;4.15;;
56927;SDS011;60850;52.502;13.426;2023-11-22T00:17:12;9.43;;;4.00;;
56927;SDS011;60850;52.502;13.426;2023-11-22T00:19:39;8.27;;;3.65;;
56927;SDS011;60850;52.502;13.426;2023-11-22T00:22:06;11.43;;;4.40;;
56927;SDS011;60850;52.502;13.426;2023-11-22T00:24:38;7.47;;;3.90;;
56927;SDS011;60850;52.502;13.426;2023-11-22T00:27:06;7.90;;;3.60;;
56927;SDS011;60850;52.502;13.426;2023-11-22T00:29:33;7.32;;;3.53;;
56927;SDS011;60850;52.502;13.426;2023-11-22T00:32:01;9.35;;;4.03;;
56927;SDS011;60850;52.502;13.426;2023-11-22T00:34:27;8.35;;;3.83;;
56927;SDS011;60850;52.502;13.426;2023-11-22T00:36:55;9.63;;;4.03;;
56927;SDS011;60850;52.502;13.426;2023-11-22T00:39:21;9.95;;;4.20;;
56927;SDS011;60850;52.502;13.426;2023-11-22T00:41:49;11.52;;;4.55;;
56927;SDS011;60850;52.502;13.426;2023-11-22T00:44:17;8.43;;;4.15;;
56927;SDS011;60850;52.502;13.426;2023-11-22T00:46:44;8.18;;;3.85;;
56927;SDS011;60850;52.502;13.426;2023-11-22T00:49:11;7.88;;;3.35;;
56927;SDS011;60850;52.502;13.426;2023-11-22T00:51:38;8.60;;;3.75;;
56927;SDS011;60850;52.502;13.426;2023-11-22T00:54:05;10.10;;;4.28;;
56927;SDS011;60850;52.502;13.426;2023-11-22T00:56:33;6.70;;;3.47;;
56927;SDS011;60850;52.502;13.426;2023-11-22T00:59:00;12.77;;;4.50;;
56927;SDS011;60850;52.502;13.426;2023-11-22T01:01:30;7.95;;;4.00;;
56927;SDS011;60850;52.502;13.426;2023-11-22T01:03:57;10.77;;;4.22;;
56927;SDS011;60850;52.502;13.426;2023-11-22T01:06:25;11.00;;;4.95;;
56927;SDS011;60850;52.502;13.426;2023-11-22T01:08:52;9.02;;;4.60;;
56927;SDS011;60850;52.502;13.426;2023-11-22T01:11:19;7.88;;;4.30;;
56927;SDS011;60850;52.502;13.426;2023-11-22T01:13:46;9.23;;;4.18;;
56927;SDS011;60850;52.502;13.426;2023-11-22T01:16:13;10.00;;;4.30;;
56927;SDS011;60850;52.502;13.426;2023-11-22T01:18:42;9.88;;;3.95;;
56927;SDS011;60850;52.502;13.426;2023-11-22T01:21:11;11.70;;;4.25;;
56927;SDS011;60850;52.502;13.426;2023-11-22T01:23:39;8.02;;;4.50;;
56927;SDS011;60850;52.502;13.426;2023-11-22T01:26:06;9.05;;;4.40;;
56927;SDS011;60850;52.502;13.426;2023-11-22T01:28:33;9.95;;;4.53;;
56927;SDS011;60850;52.502;13.426;2023-11-22T01:31:00;9.65;;;4.20;;
56927;SDS011;60850;52.502;13.426;2023-11-22T01:33:28;8.38;;;4.15;;
56927;SDS011;60850;52.502;13.426;2023-11-22T01:35:56;9.27;;;4.28;;
56927;SDS011;60850;52.502;13.426;2023-11-22T01:38:23;9.50;;;4.65;;
56927;SDS011;60850;52.502;13.426;2023-11-22T01:40:51;11.30;;;3.83;;
56927;SDS011;60850;52.502;13.426;2023-11-22T01:43:18;12.10;;;5.05;;
56927;SDS011;60850;52.502;13.426;2023-11-22T01:45:46;12.05;;;4.70;;
56927;SDS011;60850;52.502;13.426;2023-11-22T01:48:14;10.00;;;3.70;;
56927;SDS011;60850;52.502;13.426;2023-11-22T01:50:41;7.53;;;3.47;;
56927;SDS011;60850;52.502;13.426;2023-11-22T01:53:10;9.52;;;4.25;;
56927;SDS011;60850;52.502;13.426;2023-11-22T01:55:39;11.15;;;4.13;;
56927;SDS011;60850;52.502;13.426;2023-11-22T01:58:06;9.25;;;4.13;;
56927;SDS011;60850;52.502;13.426;2023-11-22T02:00:35;9.60;;;4.47;;
56927;SDS011;60850;52.502;13.426;2023-11-22T02:03:08;10.88;;;4.20;;
56927;SDS011;60850;52.502;13.426;2023-11-22T02:05:35;6.25;;;3.45;;
56927;SDS011;60850;52.502;13.426;2023-11-22T02:08:07;8.18;;;3.85;;
56927;SDS011;60850;52.502;13.426;2023-11-22T02:10:36;10.73;;;4.40;;
56927;SDS011;60850;52.502;13.426;2023-11-22T02:13:03;5.20;;;3.03;;
56927;SDS011;60850;52.502;13.426;2023-11-22T02:15:33;8.30;;;3.60;;
56927;SDS011;60850;52.502;13.426;2023-11-22T02:18:00;6.97;;;3.03;;
56927;SDS011;60850;52.502;13.426;2023-11-22T02:20:28;4.72;;;2.75;;
56927;SDS011;60850;52.502;13.426;2023-11-22T02:22:55;8.25;;;3.55;;
56927;SDS011;60850;52.502;13.426;2023-11-22T02:25:23;6.68;;;3.53;;
56927;SDS011;60850;52.502;13.426;2023-11-22T02:27:50;6.80;;;3.38;;
56927;SDS011;60850;52.502;13.426;2023-11-22T02:30:17;7.00;;;3.05;;
56927;SDS011;60850;52.502;13.426;2023-11-22T02:32:44;8.63;;;3.45;;
56927;SDS011;60850;52.502;13.426;2023-11-22T02:35:12;6.80;;;3.67;;
56927;SDS011;60850;52.502;13.426;2023-11-22T02:37:41;6.80;;;3.47;;
56927;SDS011;60850;52.502;13.426;2023-11-22T02:40:13;6.47;;;3.33;;
56927;SDS011;60850;52.502;13.426;2023-11-22T02:42:45;9.55;;;3.70;;
56927;SDS011;60850;52.502;13.426;2023-11-22T02:45:13;9.35;;;3.38;;
56927;SDS011;60850;52.502;13.426;2023-11-22T02:47:40;6.13;;;3.05;;
56927;SDS011;60850;52.502;13.426;2023-11-22T02:50:11;7.20;;;3.22;;
56927;SDS011;60850;52.502;13.426;2023-11-22T02:52:38;10.73;;;3.97;;
56927;SDS011;60850;52.502;13.426;2023-11-22T02:55:06;6.30;;;3.20;;
56927;SDS011;60850;52.502;13.426;2023-11-22T02:57:34;9.13;;;3.15;;
56927;SDS011;60850;52.502;13.426;2023-11-22T03:00:03;6.07;;;3.22;;
56927;SDS011;60850;52.502;13.426;2023-11-22T03:02:32;8.07;;;3.70;;
56927;SDS011;60850;52.502;13.426;2023-11-22T03:04:59;8.23;;;3.30;;
56927;SDS011;60850;52.502;13.426;2023-11-22T03:07:26;6.88;;;3.33;;
56927;SDS011;60850;52.502;13.426;2023-11-22T03:09:53;6.55;;;3.10;;
56927;SDS011;60850;52.502;13.426;2023-11-22T03:12:21;7.55;;;3.42;;
56927;SDS011;60850;52.502;13.426;2023-11-22T03:14:49;8.43;;;3.58;;
56927;SDS011;60850;52.502;13.426;2023-11-22T03:17:17;7.63;;;3.70;;
56927;SDS011;60850;52.502;13.426;2023-11-22T03:19:44;8.57;;;3.83;;
56927;SDS011;60850;52.502;13.426;2023-11-22T03:22:11;7.45;;;3.67;;
56927;SDS011;60850;52.502;13.426;2023-11-22T03:24:38;7.75;;;3.67;;
56927;SDS011;60850;52.502;13.426;2023-11-22T03:27:05;7.00;;;3.25;;
56927;SDS011;60850;52.502;13.426;2023-11-22T03:29:32;7.25;;;3.67;;
56927;SDS011;60850;52.502;13.426;2023-11-22T03:32:00;10.23;;;4.38;;
56927;SDS011;60850;52.502;13.426;2023-11-22T03:34:28;6.50;;;3.67;;
56927;SDS011;60850;52.502;13.426;2023-11-22T03:36:56;8.48;;;3.65;;
56927;SDS011;60850;52.502;13.426;2023-11-22T03:39:23;7.13;;;3.60;;
56927;SDS011;60850;52.502;13.426;2023-11-22T03:41:50;7.95;;;3.92;;
56927;SDS011;60850;52.502;13.426;2023-11-22T03:44:18;7.15;;;3.88;;
56927;SDS011;60850;52.502;13.426;2023-11-22T03:46:44;7.95;;;4.00;;
56927;SDS011;60850;52.502;13.426;2023-11-22T03:49:11;8.23;;;3.80;;
56927;SDS011;60850;52.502;13.426;2023-11-22T03:51:42;10.70;;;4.00;;
56927;SDS011;60850;52.502;13.426;2023-11-22T03:54:09;6.90;;;3.60;;
56927;SDS011;60850;52.502;13.426;2023-11-22T03:56:37;10.77;;;4.10;;
56927;SDS011;60850;52.502;13.426;2023-11-22T03:59:05;7.93;;;4.28;;
56927;SDS011;60850;52.502;13.426;2023-11-22T04:01:31;10.07;;;4.15;;
56927;SDS011;60850;52.502;13.426;2023-11-22T04:03:58;9.32;;;4.47;;
56927;SDS011;60850;52.502;13.426;2023-11-22T04:06:25;12.18;;;5.60;;
56927;SDS011;60850;52.502;13.426;2023-11-22T04:08:53;10.98;;;5.10;;
56927;SDS011;60850;52.502;13.426;2023-11-22T04:11:20;16.10;;;5.82;;
56927;SDS011;60850;52.502;13.426;2023-11-22T04:13:47;11.65;;;4.72;;
56927;SDS011;60850;52.502;13.426;2023-11-22T04:16:14;12.80;;;5.00;;
56927;SDS011;60850;52.502;13.426;2023-11-22T04:18:42;14.98;;;6.15;;
56927;SDS011;60850;52.502;13.426;2023-11-22T04:21:09;11.65;;;5.20;;
56927;SDS011;60850;52.502;13.426;2023-11-22T04:23:37;9.95;;;4.20;;
56927;SDS011;60850;52.502;13.426;2023-11-22T04:26:05;9.93;;;4.13;;
56927;SDS011;60850;52.502;13.426;2023-11-22T04:28:33;11.50;;;4.55;;
56927;SDS011;60850;52.502;13.426;2023-11-22T04:31:00;13.38;;;5.30;;
56927;SDS011;60850;52.502;13.426;2023-11-22T04:33:27;14.40;;;6.13;;
56927;SDS011;60850;52.502;13.426;2023-11-22T04:35:54;10.05;;;4.95;;
56927;SDS011;60850;52.502;13.426;2023-11-22T04:38:21;11.82;;;5.32;;
56927;SDS011;60850;52.502;13.426;2023-11-22T04:40:48;9.45;;;4.43;;
56927;SDS011;60850;52.502;13.426;2023-11-22T04:43:17;11.50;;;4.78;;
56927;SDS011;60850;52.502;13.426;2023-11-22T04:45:44;12.75;;;5.28;;
56927;SDS011;60850;52.502;13.426;2023-11-22T04:48:11;11.38;;;4.88;;
56927;SDS011;60850;52.502;13.426;2023-11-22T04:50:40;9.88;;;5.15;;
56927;SDS011;60850;52.502;13.426;2023-11-22T04:53:08;9.25;;;4.80;;
56927;SDS011;60850;52.502;13.426;2023-11-22T04:55:35;10.18;;;4.07;;
56927;SDS011;60850;52.502;13.426;2023-11-22T04:58:02;12.52;;;5.20;;
56927;SDS011;60850;52.502;13.426;2023-11-22T05:00:30;12.63;;;5.47;;
56927;SDS011;60850;52.502;13.426;2023-11-22T05:02:57;12.57;;;4.95;;
56927;SDS011;60850;52.502;13.426;2023-11-22T05:05:24;8.43;;;5.00;;
56927;SDS011;60850;52.502;13.426;2023-11-22T05:07:51;10.88;;;4.15;;
56927;SDS011;60850;52.502;13.426;2023-11-22T05:10:18;10.07;;;4.30;;
56927;SDS011;60850;52.502;13.426;2023-11-22T05:12:45;9.27;;;4.15;;
56927;SDS011;60850;52.502;13.426;2023-11-22T05:15:12;6.97;;;4.30;;
56927;SDS011;60850;52.502;13.426;2023-11-22T05:17:41;9.75;;;5.07;;
56927;SDS011;60850;52.502;13.426;2023-11-22T05:20:08;12.13;;;5.15;;
56927;SDS011;60850;52.502;13.426;2023-11-22T05:22:36;11.48;;;4.55;;
56927;SDS011;60850;52.502;13.426;2023-11-22T05:25:03;10.25;;;4.15;;
56927;SDS011;60850;52.502;13.426;2023-11-22T05:27:32;11.45;;;4.38;;
56927;SDS011;60850;52.502;13.426;2023-11-22T05:29:59;12.43;;;4.60;;
56927;SDS011;60850;52.502;13.426;2023-11-22T05:32:27;11.95;;;5.13;;
56927;SDS011;60850;52.502;13.426;2023-11-22T05:34:55;9.45;;;3.90;;
56927;SDS011;60850;52.502;13.426;2023-11-22T05:37:22;10.88;;;4.43;;
56927;SDS011;60850;52.502;13.426;2023-11-22T05:39:49;11.90;;;4.65;;
56927;SDS011;60850;52.502;13.426;2023-11-22T05:42:16;8.40;;;3.72;;
56927;SDS011;60850;52.502;13.426;2023-11-22T05:44:44;9.85;;;4.78;;
56927;SDS011;60850;52.502;13.426;2023-11-22T05:47:11;10.10;;;4.05;;
56927;SDS011;60850;52.502;13.426;2023-11-22T05:49:38;12.00;;;4.70;;
56927;SDS011;60850;52.502;13.426;2023-11-22T05:52:07;9.23;;;4.20;;
56927;SDS011;60850;52.502;13.426;2023-11-22T05:54:33;10.90;;;4.30;;
56927;SDS011;60850;52.502;13.426;2023-11-22T05:57:02;12.30;;;4.57;;
56927;SDS011;60850;52.502;13.426;2023-11-22T05:59:29;8.98;;;4.28;;
56927;SDS011;60850;52.502;13.426;2023-11-22T06:01:57;9.73;;;4.18;;
56927;SDS011;60850;52.502;13.426;2023-11-22T06:04:24;7.25;;;4.00;;
56927;SDS011;60850;52.502;13.426;2023-11-22T06:06:51;10.90;;;4.55;;
56927;SDS011;60850;52.502;13.426;2023-11-22T06:09:19;10.07;;;4.47;;
56927;SDS011;60850;52.502;13.426;2023-11-22T06:11:48;10.57;;;4.55;;
56927;SDS011;60850;52.502;13.426;2023-11-22T06:14:15;13.20;;;5.07;;
56927;SDS011;60850;52.502;13.426;2023-11-22T06:16:42;7.82;;;4.63;;
56927;SDS011;60850;52.502;13.426;2023-11-22T06:19:09;10.05;;;4.25;;
56927;SDS011;60850;52.502;13.426;2023-11-22T06:21:36;10.70;;;4.80;;
56927;SDS011;60850;52.502;13.426;2023-11-22T06:24:04;12.00;;;4.78;;
56927;SDS011;60850;52.502;13.426;2023-11-22T06:26:35;10.55;;;5.00;;
56927;SDS011;60850;52.502;13.426;2023-11-22T06:29:05;10.23;;;3.95;;
56927;SDS011;60850;52.502;13.426;2023-11-22T06:31:32;8.93;;;4.75;;
56927;SDS011;60850;52.502;13.426;2023-11-22T06:33:59;10.50;;;4.10;;
56927;SDS011;60850;52.502;13.426;2023-11-22T06:36:27;10.45;;;4.60;;
56927;SDS011;60850;52.502;13.426;2023-11-22T06:38:54;12.93;;;4.82;;
56927;SDS011;60850;52.502;13.426;2023-11-22T06:41:21;8.68;;;4.60;;
56927;SDS011;60850;52.502;13.426;2023-11-22T06:43:50;10.07;;;4.60;;
56927;SDS011;60850;52.502;13.426;2023-11-22T06:46:18;12.85;;;4.32;;
56927;SDS011;60850;52.502;13.426;2023-11-22T06:48:45;9.55;;;4.75;;
56927;SDS011;60850;52.502;13.426;2023-11-22T06:51:14;10.95;;;4.32;;
56927;SDS011;60850;52.502;13.426;2023-11-22T06:53:40;9.50;;;4.45;;
56927;SDS011;60850;52.502;13.426;2023-11-22T06:56:08;9.75;;;4.88;;
56927;SDS011;60850;52.502;13.426;2023-11-22T06:58:35;11.32;;;4.80;;
56927;SDS011;60850;52.502;13.426;2023-11-22T07:01:04;11.18;;;5.55;;
56927;SDS011;60850;52.502;13.426;2023-11-22T07:03:30;10.32;;;4.70;;
56927;SDS011;60850;52.502;13.426;2023-11-22T07:05:58;12.80;;;5.18;;
56927;SDS011;60850;52.502;13.426;2023-11-22T07:08:24;12.15;;;5.38;;
56927;SDS011;60850;52.502;13.426;2023-11-22T07:10:53;11.88;;;4.88;;
56927;SDS011;60850;52.502;13.426;2023-11-22T07:13:22;11.55;;;5.60;;
56927;SDS011;60850;52.502;13.426;2023-11-22T07:15:49;10.48;;;4.95;;
56927;SDS011;60850;52.502;13.426;2023-11-22T07:18:18;13.05;;;5.80;;
56927;SDS011;60850;52.502;13.426;2023-11-22T07:20:45;14.57;;;6.13;;
56927;SDS011;60850;52.502;13.426;2023-11-22T07:23:13;12.23;;;5.07;;
56927;SDS011;60850;52.502;13.426;2023-11-22T07:25:41;9.35;;;4.72;;
56927;SDS011;60850;52.502;13.426;2023-11-22T07:28:08;10.80;;;5.28;;
56927;SDS011;60850;52.502;13.426;2023-11-22T07:30:36;10.32;;;5.30;;
56927;SDS011;60850;52.502;13.426;2023-11-22T07:33:06;11.68;;;5.45;;
56927;SDS011;60850;52.502;13.426;2023-11-22T07:35:34;16.00;;;6.63;;
56927;SDS011;60850;52.502;13.426;2023-11-22T07:38:01;14.25;;;5.82;;
56927;SDS011;60850;52.502;13.426;2023-11-22T07:40:29;11.43;;;5.20;;
56927;SDS011;60850;52.502;13.426;2023-11-22T07:42:56;13.07;;;5.22;;
56927;SDS011;60850;52.502;13.426;2023-11-22T07:45:23;11.23;;;4.85;;
56927;SDS011;60850;52.502;13.426;2023-11-22T07:47:50;13.27;;;5.32;;
56927;SDS011;60850;52.502;13.426;2023-11-22T07:50:18;8.88;;;4.85;;
56927;SDS011;60850;52.502;13.426;2023-11-22T07:52:48;18.45;;;6.00;;
56927;SDS011;60850;52.502;13.426;2023-11-22T07:55:16;13.60;;;5.55;;
56927;SDS011;60850;52.502;13.426;2023-11-22T07:57:43;13.82;;;5.93;;
56927;SDS011;60850;52.502;13.426;2023-11-22T08:00:10;13.50;;;6.10;;
56927;SDS011;60850;52.502;13.426;2023-11-22T08:02:38;18.05;;;5.50;;
56927;SDS011;60850;52.502;13.426;2023-11-22T08:05:05;13.50;;;5.45;;
56927;SDS011;60850;52.502;13.426;2023-11-22T08:07:34;12.25;;;5.80;;
56927;SDS011;60850;52.502;13.426;2023-11-22T08:10:06;14.07;;;5.97;;
56927;SDS011;60850;52.502;13.426;2023-11-22T08:12:40;14.20;;;5.57;;
56927;SDS011;60850;52.502;13.426;2023-11-22T08:15:07;13.63;;;5.22;;
56927;SDS011;60850;52.502;13.426;2023-11-22T08:17:37;10.63;;;5.20;;
56927;SDS011;60850;52.502;13.426;2023-11-22T08:20:05;11.55;;;5.75;;
56927;SDS011;60850;52.502;13.426;2023-11-22T08:22:37;11.77;;;5.75;;
56927;SDS011;60850;52.502;13.426;2023-11-22T08:25:07;9.35;;;5.03;;
56927;SDS011;60850;52.502;13.426;2023-11-22T08:27:37;10.45;;;5.32;;
56927;SDS011;60850;52.502;13.426;2023-11-22T08:30:07;11.63;;;5.40;;
56927;SDS011;60850;52.502;13.426;2023-11-22T08:32:39;12.98;;;5.53;;
56927;SDS011;60850;52.502;13.426;2023-11-22T08:35:08;9.48;;;5.10;;
56927;SDS011;60850;52.502;13.426;2023-11-22T08:37:35;10.13;;;5.38;;
56927;SDS011;60850;52.502;13.426;2023-11-22T08:40:06;9.55;;;4.78;;
56927;SDS011;60850;52.502;13.426;2023-11-22T08:42:34;9.13;;;5.05;;
56927;SDS011;60850;52.502;13.426;2023-11-22T08:45:02;12.40;;;6.28;;
56927;SDS011;60850;52.502;13.426;2023-11-22T08:47:30;10.82;;;4.95;;
56927;SDS011;60850;52.502;13.426;2023-11-22T08:49:57;13.30;;;6.53;;
56927;SDS011;60850;52.502;13.426;2023-11-22T08:52:24;10.43;;;5.28;;
56927;SDS011;60850;52.502;13.426;2023-11-22T08:54:51;11.27;;;4.85;;
56927;SDS011;60850;52.502;13.426;2023-11-22T08:57:19;9.27;;;5.43;;
56927;SDS011;60850;52.502;13.426;2023-11-22T08:59:46;12.63;;;5.03;;
56927;SDS011;60850;52.502;13.426;2023-11-22T09:02:14;9.50;;;4.80;;
56927;SDS011;60850;52.502;13.426;2023-11-22T09:04:41;9.02;;;4.68;;
56927;SDS011;60850;52.502;13.426;2023-11-22T09:07:08;9.02;;;4.82;;
56927;SDS011;60850;52.502;13.426;2023-11-22T09:09:36;10.77;;;5.53;;
56927;SDS011;60850;52.502;13.426;2023-11-22T09:12:06;12.13;;;5.50;;
56927;SDS011;60850;52.502;13.426;2023-11-22T09:14:40;10.20;;;5.03;;
56927;SDS011;60850;52.502;13.426;2023-11-22T09:17:07;10.95;;;4.78;;
56927;SDS011;60850;52.502;13.426;2023-11-22T09:19:35;11.30;;;5.35;;
56927;SDS011;60850;52.502;13.426;2023-11-22T09:22:03;12.48;;;5.38;;
56927;SDS011;60850;52.502;13.426;2023-11-22T09:24:32;8.32;;;4.50;;
56927;SDS011;60850;52.502;13.426;2023-11-22T09:27:02;9.60;;;4.97;;
56927;SDS011;60850;52.502;13.426;2023-11-22T09:29:31;10.68;;;4.60;;
56927;SDS011;60850;52.502;13.426;2023-11-22T09:32:00;13.88;;;5.43;;
56927;SDS011;60850;52.502;13.426;2023-11-22T09:34:27;15.32;;;5.00;;
56927;SDS011;60850;52.502;13.426;2023-11-22T09:36:55;10.07;;;4.47;;
56927;SDS011;60850;52.502;13.426;2023-11-22T09:39:22;12.70;;;5.40;;
56927;SDS011;60850;52.502;13.426;2023-11-22T09:41:50;11.80;;;5.05;;
56927;SDS011;60850;52.502;13.426;2023-11-22T09:44:18;9.95;;;5.03;;
56927;SDS011;60850;52.502;13.426;2023-11-22T09:46:47;8.88;;;4.70;;
56927;SDS011;60850;52.502;13.426;2023-11-22T09:49:20;8.40;;;5.07;;
56927;SDS011;60850;52.502;13.426;2023-11-22T09:51:51;16.27;;;5.35;;
56927;SDS011;60850;52.502;13.426;2023-11-22T09:54:21;10.15;;;4.25;;
56927;SDS011;60850;52.502;13.426;2023-11-22T09:56:55;10.25;;;4.68;;
56927;SDS011;60850;52.502;13.426;2023-11-22T09:59:27;9.07;;;4.85;;
56927;SDS011;60850;52.502;13.426;2023-11-22T10:01:55;12.68;;;4.47;;
56927;SDS011;60850;52.502;13.426;2023-11-22T10:04:26;8.93;;;4.30;;
56927;SDS011;60850;52.502;13.426;2023-11-22T10:06:55;10.55;;;4.68;;
56927;SDS011;60850;52.502;13.426;2023-11-22T10:09:24;8.10;;;4.13;;
56927;SDS011;60850;52.502;13.426;2023-11-22T10:11:52;8.10;;;4.75;;
56927;SDS011;60850;52.502;13.426;2023-11-22T10:14:23;10.88;;;4.95;;
56927;SDS011;60850;52.502;13.426;2023-11-22T10:16:57;9.55;;;4.68;;
56927;SDS011;60850;52.502;13.426;2023-11-22T10:19:27;8.90;;;4.28;;
56927;SDS011;60850;52.502;13.426;2023-11-22T10:22:02;8.88;;;4.88;;
56927;SDS011;60850;52.502;13.426;2023-11-22T10:24:30;17.48;;;7.57;;
56927;SDS011;60850;52.502;13.426;2023-11-22T10:26:58;10.88;;;5.07;;
56927;SDS011;60850;52.502;13.426;2023-11-22T10:29:26;9.27;;;4.82;;
56927;SDS011;60850;52.502;13.426;2023-11-22T10:31:53;9.32;;;5.05;;
56927;SDS011;60850;52.502;13.426;2023-11-22T10:34:20;8.75;;;4.53;;
56927;SDS011;60850;52.502;13.426;2023-11-22T10:36:48;10.45;;;5.30;;
56927;SDS011;60850;52.502;13.426;2023-11-22T10:39:18;8.10;;;4.30;;
56927;SDS011;60850;52.502;13.426;2023-11-22T10:41:45;11.88;;;5.57;;
56927;SDS011;60850;52.502;13.426;2023-11-22T10:44:14;9.73;;;4.88;;
56927;SDS011;60850;52.502;13.426;2023-11-22T10:46:42;8.00;;;3.92;;
56927;SDS011;60850;52.502;13.426;2023-11-22T10:49:09;10.60;;;4.72;;
56927;SDS011;60850;52.502;13.426;2023-11-22T10:51:37;10.77;;;5.30;;
56927;SDS011;60850;52.502;13.426;2023-11-22T10:54:09;11.15;;;5.60;;
56927;SDS011;60850;52.502;13.426;2023-11-22T10:56:38;13.40;;;4.75;;
56927;SDS011;60850;52.502;13.426;2023-11-22T10:59:09;9.80;;;4.90;;
56927;SDS011;60850;52.502;13.426;2023-11-22T11:01:40;7.05;;;4.25;;
56927;SDS011;60850;52.502;13.426;2023-11-22T11:04:18;10.00;;;5.68;;
56927;SDS011;60850;52.502;13.426;2023-11-22T11:06:46;9.43;;;4.85;;
56927;SDS011;60850;52.502;13.426;2023-11-22T11:09:20;10.18;;;4.95;;
56927;SDS011;60850;52.502;13.426;2023-11-22T11:11:52;11.90;;;5.65;;
56927;SDS011;60850;52.502;13.426;2023-11-22T11:14:19;11.00;;;5.07;;
56927;SDS011;60850;52.502;13.426;2023-11-22T11:16:46;14.27;;;5.43;;
56927;SDS011;60850;52.502;13.426;2023-11-22T11:19:15;9.02;;;4.90;;
56927;SDS011;60850;52.502;13.426;2023-11-22T11:21:43;11.05;;;4.93;;
56927;SDS011;60850;52.502;13.426;2023-11-22T11:24:11;10.18;;;5.15;;
56927;SDS011;60850;52.502;13.426;2023-11-22T11:26:40;11.43;;;5.25;;
56927;SDS011;60850;52.502;13.426;2023-11-22T11:29:07;9.38;;;4.65;;
56927;SDS011;60850;52.502;13.426;2023-11-22T11:31:58;11.93;;;5.20;;
56927;SDS011;60850;52.502;13.426;2023-11-22T11:34:25;11.93;;;5.53;;
56927;SDS011;60850;52.502;13.426;2023-11-22T11:36:52;12.35;;;5.90;;
56927;SDS011;60850;52.502;13.426;2023-11-22T11:39:24;12.23;;;5.22;;
56927;SDS011;60850;52.502;13.426;2023-11-22T11:42:08;12.00;;;5.53;;
56927;SDS011;60850;52.502;13.426;2023-11-22T11:44:36;13.43;;;5.35;;
56927;SDS011;60850;52.502;13.426;2023-11-22T11:47:09;12.93;;;5.30;;
56927;SDS011;60850;52.502;13.426;2023-11-22T11:49:37;11.55;;;5.15;;
56927;SDS011;60850;52.502;13.426;2023-11-22T11:52:05;9.57;;;4.82;;
56927;SDS011;60850;52.502;13.426;2023-11-22T11:54:33;9.48;;;4.80;;
56927;SDS011;60850;52.502;13.426;2023-11-22T11:57:00;14.82;;;4.97;;
56927;SDS011;60850;52.502;13.426;2023-11-22T11:59:29;10.45;;;5.20;;
56927;SDS011;60850;52.502;13.426;2023-11-22T12:01:59;14.43;;;5.47;;
56927;SDS011;60850;52.502;13.426;2023-11-22T12:04:26;11.80;;;4.47;;
56927;SDS011;60850;52.502;13.426;2023-11-22T12:06:53;7.05;;;4.32;;
56927;SDS011;60850;52.502;13.426;2023-11-22T12:09:23;9.07;;;4.22;;
56927;SDS011;60850;52.502;13.426;2023-11-22T12:11:51;10.02;;;4.32;;
56927;SDS011;60850;52.502;13.426;2023-11-22T12:14:20;9.80;;;4.38;;
56927;SDS011;60850;52.502;13.426;2023-11-22T12:16:49;10.05;;;4.60;;
56927;SDS011;60850;52.502;13.426;2023-11-22T12:19:23;9.52;;;4.75;;
56927;SDS011;60850;52.502;13.426;2023-11-22T12:21:52;8.82;;;4.45;;
56927;SDS011;60850;52.502;13.426;2023-11-22T12:24:19;12.55;;;4.80;;
56927;SDS011;60850;52.502;13.426;2023-11-22T12:26:47;12.20;;;4.68;;
56927;SDS011;60850;52.502;13.426;2023-11-22T12:29:15;12.27;;;5.22;;
56927;SDS011;60850;52.502;13.426;2023-11-22T12:31:44;8.45;;;4.20;;
56927;SDS011;60850;52.502;13.426;2023-11-22T12:34:15;7.60;;;4.05;;
56927;SDS011;60850;52.502;13.426;2023-11-22T12:36:42;10.50;;;4.70;;
56927;SDS011;60850;52.502;13.426;2023-11-22T12:39:12;8.57;;;4.20;;
56927;SDS011;60850;52.502;13.426;2023-11-22T12:41:42;9.45;;;4.35;;
56927;SDS011;60850;52.502;13.426;2023-11-22T12:44:10;9.63;;;4.38;;
56927;SDS011;60850;52.502;13.426;2023-11-22T12:46:45;9.55;;;4.35;;
56927;SDS011;60850;52.502;13.426;2023-11-22T12:49:16;12.00;;;5.43;;
56927;SDS011;60850;52.502;13.426;2023-11-22T12:51:47;16.23;;;4.95;;
56927;SDS011;60850;52.502;13.426;2023-11-22T12:54:15;8.05;;;4.05;;
56927;SDS011;60850;52.502;13.426;2023-11-22T12:56:45;11.45;;;4.88;;
56927;SDS011;60850;52.502;13.426;2023-11-22T12:59:13;10.68;;;5.28;;
56927;SDS011;60850;52.502;13.426;2023-11-22T13:01:39;10.10;;;4.88;;
56927;SDS011;60850;52.502;13.426;2023-11-22T13:04:07;12.05;;;4.85;;
56927;SDS011;60850;52.502;13.426;2023-11-22T13:06:35;8.90;;;4.43;;
56927;SDS011;60850;52.502;13.426;2023-11-22T13:09:03;9.35;;;4.95;;
56927;SDS011;60850;52.502;13.426;2023-11-22T13:11:30;10.82;;;4.70;;
56927;SDS011;60850;52.502;13.426;2023-11-22T13:13:58;8.50;;;4.53;;
56927;SDS011;60850;52.502;13.426;2023-11-22T13:16:25;11.45;;;5.00;;
56927;SDS011;60850;52.502;13.426;2023-11-22T13:18:52;10.50;;;4.65;;
56927;SDS011;60850;52.502;13.426;2023-11-22T13:21:19;9.07;;;4.70;;
56927;SDS011;60850;52.502;13.426;2023-11-22T13:23:48;8.80;;;4.00;;
56927;SDS011;60850;52.502;13.426;2023-11-22T13:26:15;8.57;;;4.30;;
56927;SDS011;60850;52.502;13.426;2023-11-22T13:28:42;8.13;;;4.18;;
56927;SDS011;60850;52.502;13.426;2023-11-22T13:31:10;11.25;;;4.55;;
56927;SDS011;60850;52.502;13.426;2023-11-22T13:33:38;6.65;;;4.00;;
56927;SDS011;60850;52.502;13.426;2023-11-22T13:36:09;7.88;;;4.43;;
56927;SDS011;60850;52.502;13.426;2023-11-22T13:38:39;10.32;;;4.05;;
56927;SDS011;60850;52.502;13.426;2023-11-22T13:41:07;8.18;;;4.10;;
56927;SDS011;60850;52.502;13.426;2023-11-22T13:43:35;7.15;;;4.28;;
56927;SDS011;60850;52.502;13.426;2023-11-22T13:46:02;7.45;;;3.40;;
56927;SDS011;60850;52.502;13.426;2023-11-22T13:48:30;7.70;;;3.67;;
56927;SDS011;60850;52.502;13.426;2023-11-22T13:50:57;6.40;;;2.97;;
56927;SDS011;60850;52.502;13.426;2023-11-22T13:53:25;6.72;;;2.95;;
56927;SDS011;60850;52.502;13.426;2023-11-22T13:55:56;7.32;;;3.83;;
56927;SDS011;60850;52.502;13.426;2023-11-22T13:58:25;8.27;;;3.90;;
56927;SDS011;60850;52.502;13.426;2023-11-22T14:00:52;7.88;;;3.40;;
56927;SDS011;60850;52.502;13.426;2023-11-22T14:03:20;6.13;;;3.25;;
56927;SDS011;60850;52.502;13.426;2023-11-22T14:05:47;8.50;;;3.78;;
56927;SDS011;60850;52.502;13.426;2023-11-22T14:08:14;7.55;;;4.20;;
56927;SDS011;60850;52.502;13.426;2023-11-22T14:10:41;8.75;;;4.20;;
56927;SDS011;60850;52.502;13.426;2023-11-22T14:13:10;8.45;;;4.47;;
56927;SDS011;60850;52.502;13.426;2023-11-22T14:15:38;10.50;;;4.38;;
56927;SDS011;60850;52.502;13.426;2023-11-22T14:18:05;8.27;;;4.28;;
56927;SDS011;60850;52.502;13.426;2023-11-22T14:20:32;9.98;;;4.68;;
56927;SDS011;60850;52.502;13.426;2023-11-22T14:23:01;9.27;;;4.70;;
56927;SDS011;60850;52.502;13.426;2023-11-22T14:25:27;9.75;;;4.60;;
56927;SDS011;60850;52.502;13.426;2023-11-22T14:27:54;8.90;;;4.15;;
56927;SDS011;60850;52.502;13.426;2023-11-22T14:30:22;11.70;;;4.85;;
56927;SDS011;60850;52.502;13.426;2023-11-22T14:32:52;8.18;;;4.35;;